Terminal Aerodrome Forecast
Issued by NWS Blacksburg, VA

Home | Current Version | Previous Version | Text Only | Print | Product List | Glossary On
Versions: 1 2 3 4 5 6 7 8 9 10 11 12 13 14 15 16
000
FTUS41 KRNK 271124
TAFROA
TAF
KROA 271124Z 2712/2812 VRB03KT P6SM SCT110
     FM271500 00000KT P6SM BKN100
      TEMPO 2717/2719 P6SM BKN040
     FM271900 27006KT P6SM VCTS BKN060CB
     FM280100 26004KT P6SM SCT090
     FM280900 00000KT P6SM BKN070=

USA.gov is the U.S. government's official web portal to all federal, state and local government web resources and services.